createdAt,value
2022-08-19T00:01:59.202Z,10.75
2022-08-19T00:04:37.259Z,10.75
2022-08-19T00:07:07.108Z,11.40
2022-08-19T00:09:34.680Z,8.32
2022-08-19T00:12:02.176Z,7.95
2022-08-19T00:14:33.512Z,11.60
2022-08-19T00:17:01.931Z,10.07
2022-08-19T00:19:29.609Z,10.40
2022-08-19T00:21:57.094Z,9.60
2022-08-19T00:24:24.431Z,8.02
2022-08-19T00:26:52.693Z,8.23
2022-08-19T00:29:22.179Z,9.35
2022-08-19T00:31:51.057Z,10.23
2022-08-19T00:34:18.396Z,11.93
2022-08-19T00:36:47.693Z,10.70
2022-08-19T00:39:17.472Z,10.43
2022-08-19T00:41:49.944Z,9.57
2022-08-19T00:44:28.033Z,9.82
2022-08-19T00:46:59.908Z,11.15
2022-08-19T00:49:41.720Z,12.65
2022-08-19T00:52:23.008Z,9.60
2022-08-19T00:54:52.686Z,10.32
2022-08-19T00:57:27.465Z,10.45
2022-08-19T01:00:02.499Z,10.02
2022-08-19T01:02:32.359Z,11.52
2022-08-19T01:05:03.940Z,8.45
2022-08-19T01:07:37.581Z,9.75
2022-08-19T01:10:13.357Z,9.80
2022-08-19T01:12:41.392Z,9.18
2022-08-19T01:15:12.722Z,10.73
2022-08-19T01:17:40.811Z,10.23
2022-08-19T01:20:13.624Z,10.63
2022-08-19T01:22:51.224Z,9.15
2022-08-19T01:25:22.679Z,11.55
2022-08-19T01:27:53.781Z,10.18
2022-08-19T01:30:29.104Z,10.02
2022-08-19T01:32:57.632Z,10.23
2022-08-19T01:35:27.693Z,11.70
2022-08-19T01:38:09.480Z,11.20
2022-08-19T01:40:40.043Z,10.23
2022-08-19T01:43:07.505Z,12.35
2022-08-19T01:45:36.177Z,9.25
2022-08-19T01:48:03.512Z,10.07
2022-08-19T01:50:33.437Z,11.32
2022-08-19T01:53:06.389Z,9.75
2022-08-19T01:55:40.910Z,8.45
2022-08-19T01:58:19.721Z,10.75
2022-08-19T02:00:48.555Z,8.02
2022-08-19T02:03:16.913Z,10.55
2022-08-19T02:05:45.126Z,9.07
2022-08-19T02:08:12.677Z,7.93
2022-08-19T02:10:44.020Z,9.75
2022-08-19T02:13:15.764Z,10.60
2022-08-19T02:15:50.484Z,11.35
2022-08-19T02:18:17.686Z,9.52
2022-08-19T02:20:45.867Z,10.45
2022-08-19T02:23:16.184Z,9.43
2022-08-19T02:25:48.944Z,10.18
2022-08-19T02:28:18.781Z,9.93
2022-08-19T02:30:47.902Z,9.93
2022-08-19T02:33:15.201Z,9.00
2022-08-19T02:35:47.929Z,8.27
2022-08-19T02:38:28.161Z,10.43
2022-08-19T02:41:06.271Z,10.55
2022-08-19T02:43:37.324Z,11.02
2022-08-19T02:46:24.323Z,11.43
2022-08-19T02:48:58.992Z,12.18
2022-08-19T02:51:30.266Z,9.20
2022-08-19T02:53:58.112Z,10.07
2022-08-19T02:56:28.404Z,9.40
2022-08-19T02:58:56.498Z,10.10
2022-08-19T03:01:32.376Z,10.05
2022-08-19T03:06:30.715Z,11.98
2022-08-19T03:08:58.824Z,8.90
2022-08-19T03:11:31.827Z,9.77
2022-08-19T03:14:01.017Z,10.77
2022-08-19T03:16:33.215Z,11.75
2022-08-19T03:19:02.822Z,10.07
2022-08-19T03:21:35.330Z,12.75
2022-08-19T03:24:07.649Z,10.82
2022-08-19T03:26:39.938Z,11.07
2022-08-19T03:29:08.627Z,10.23
2022-08-19T03:31:44.424Z,11.75
2022-08-19T03:34:27.372Z,11.45
2022-08-19T03:37:01.532Z,12.90
2022-08-19T03:39:28.996Z,12.38
2022-08-19T03:42:32.457Z,11.02
2022-08-19T03:44:48.270Z,13.65
2022-08-19T03:47:16.363Z,11.27
2022-08-19T03:49:44.043Z,11.18
2022-08-19T03:52:11.346Z,12.55
2022-08-19T03:54:39.395Z,11.52
2022-08-19T03:57:07.123Z,11.65
2022-08-19T03:59:37.088Z,13.52
2022-08-19T04:02:11.258Z,10.70
2022-08-19T04:04:41.062Z,10.85
2022-08-19T04:07:09.267Z,10.18
2022-08-19T04:09:39.849Z,11.90
2022-08-19T04:12:07.586Z,13.15
2022-08-19T04:14:35.731Z,11.13
2022-08-19T04:17:05.781Z,13.52
2022-08-19T04:19:35.963Z,13.55
2022-08-19T04:22:04.856Z,11.75
2022-08-19T04:24:32.912Z,13.90
2022-08-19T04:27:03.562Z,12.05
2022-08-19T04:29:31.213Z,15.65
2022-08-19T04:31:59.640Z,14.80
2022-08-19T04:34:30.465Z,16.00
2022-08-19T04:36:59.734Z,16.08
2022-08-19T04:39:50.174Z,14.57
2022-08-19T04:42:37.735Z,16.05
2022-08-19T04:45:09.277Z,14.38
2022-08-19T04:47:47.740Z,11.90
2022-08-19T04:50:28.416Z,12.10
2022-08-19T04:52:57.960Z,15.48
2022-08-19T04:55:28.577Z,12.20
2022-08-19T04:57:55.902Z,11.18
2022-08-19T05:00:23.872Z,14.23
2022-08-19T05:02:51.075Z,15.25
2022-08-19T05:05:18.644Z,15.30
2022-08-19T05:07:45.847Z,9.60
2022-08-19T05:10:13.685Z,9.90
2022-08-19T05:12:40.745Z,9.50
2022-08-19T05:15:10.044Z,8.50
2022-08-19T05:17:38.934Z,10.52
2022-08-19T05:20:27.292Z,12.15
2022-08-19T05:22:54.594Z,11.55
2022-08-19T05:25:22.763Z,12.02
2022-08-19T05:27:50.092Z,11.82
2022-08-19T05:30:17.928Z,13.63
2022-08-19T05:32:45.683Z,11.77
2022-08-19T05:35:12.919Z,13.35
2022-08-19T05:37:43.915Z,16.80
2022-08-19T05:40:11.659Z,14.35
2022-08-19T05:42:39.761Z,15.52
2022-08-19T05:45:08.799Z,14.77
2022-08-19T05:47:36.525Z,15.13
2022-08-19T05:50:09.758Z,13.75
2022-08-19T05:52:39.263Z,13.45
2022-08-19T05:55:11.514Z,15.93
2022-08-19T05:57:40.611Z,16.73
2022-08-19T06:00:11.305Z,17.60
2022-08-19T06:02:39.953Z,15.18
2022-08-19T06:05:10.092Z,17.00
2022-08-19T06:07:38.200Z,16.10
2022-08-19T06:10:08.660Z,17.42
2022-08-19T06:12:36.818Z,17.52
2022-08-19T06:15:11.597Z,20.38
2022-08-19T06:17:39.304Z,21.02
2022-08-19T06:20:12.858Z,19.45
2022-08-19T06:22:47.130Z,18.92
2022-08-19T06:25:16.591Z,18.85
2022-08-19T06:28:11.633Z,19.23
2022-08-19T06:30:31.409Z,20.42
2022-08-19T06:32:58.738Z,23.48
2022-08-19T06:35:26.337Z,20.92
2022-08-19T06:37:53.546Z,22.35
2022-08-19T06:40:20.924Z,21.77
2022-08-19T06:42:55.057Z,20.52
2022-08-19T06:45:25.186Z,21.05
2022-08-19T06:48:01.516Z,21.17
2022-08-19T06:50:28.604Z,20.92
2022-08-19T06:52:55.918Z,19.48
2022-08-19T06:55:23.339Z,18.10
2022-08-19T06:57:54.180Z,18.52
2022-08-19T07:00:21.832Z,17.83
2022-08-19T07:02:54.297Z,23.48
2022-08-19T07:05:24.431Z,18.33
2022-08-19T07:07:51.497Z,21.23
2022-08-19T07:10:20.042Z,20.05
2022-08-19T07:12:47.507Z,20.25
2022-08-19T07:15:15.719Z,16.98
2022-08-19T07:17:44.272Z,15.52
2022-08-19T07:20:12.275Z,15.45
2022-08-19T07:22:40.223Z,13.88
2022-08-19T07:25:09.862Z,14.43
2022-08-19T07:27:38.042Z,16.27
2022-08-19T07:30:11.626Z,15.85
2022-08-19T07:32:40.749Z,14.18
2022-08-19T07:35:10.247Z,13.95
2022-08-19T07:37:39.203Z,15.13
2022-08-19T07:40:08.636Z,13.70
2022-08-19T07:42:36.044Z,14.50
2022-08-19T07:45:03.781Z,14.85
2022-08-19T07:47:48.288Z,14.52
2022-08-19T07:50:20.718Z,14.43
2022-08-19T07:52:50.838Z,13.65
2022-08-19T07:55:41.998Z,13.85
2022-08-19T07:58:13.539Z,14.15
2022-08-19T08:00:42.569Z,12.75
2022-08-19T08:03:11.081Z,11.88
2022-08-19T08:05:57.160Z,12.65
2022-08-19T08:08:43.922Z,13.27
2022-08-19T08:11:15.536Z,13.32
2022-08-19T08:13:43.580Z,12.95
2022-08-19T08:16:13.971Z,14.95
2022-08-19T08:18:43.336Z,10.82
2022-08-19T08:21:17.812Z,12.18
2022-08-19T08:23:45.045Z,14.82
2022-08-19T08:26:14.020Z,11.68
2022-08-19T08:28:43.078Z,15.55
2022-08-19T08:31:15.515Z,13.95
2022-08-19T08:33:43.272Z,13.05
2022-08-19T08:36:10.918Z,16.77
2022-08-19T08:38:40.952Z,15.23
2022-08-19T08:41:20.634Z,15.50
2022-08-19T08:43:52.895Z,12.57
2022-08-19T08:46:43.176Z,13.63
2022-08-19T08:49:44.583Z,16.50
2022-08-19T08:52:32.175Z,11.85
2022-08-19T08:55:10.478Z,16.50
2022-08-19T08:57:52.256Z,15.77
2022-08-19T09:00:26.075Z,13.57
2022-08-19T09:02:54.831Z,15.68
2022-08-19T09:05:26.001Z,16.77
2022-08-19T09:08:41.741Z,15.57
2022-08-19T09:11:42.860Z,14.93
2022-08-19T09:14:47.239Z,13.38
2022-08-19T09:17:10.795Z,12.18
2022-08-19T09:19:53.253Z,14.45
2022-08-19T09:22:25.996Z,16.10
2022-08-19T09:24:55.508Z,15.65
2022-08-19T09:27:42.440Z,16.70
2022-08-19T09:30:24.853Z,15.63
2022-08-19T09:32:55.762Z,15.57
2022-08-19T09:35:28.389Z,14.43
2022-08-19T09:37:59.628Z,14.25
2022-08-19T09:40:35.456Z,16.10
2022-08-19T09:43:10.102Z,16.00
2022-08-19T09:45:40.327Z,15.85
2022-08-19T09:48:07.502Z,14.93
2022-08-19T09:50:39.409Z,16.92
2022-08-19T09:53:25.221Z,15.75
2022-08-19T09:55:55.530Z,13.48
2022-08-19T09:58:26.738Z,13.68
2022-08-19T10:00:55.261Z,12.23
2022-08-19T10:03:25.581Z,12.50
2022-08-19T10:06:01.290Z,12.55
2022-08-19T10:08:36.008Z,11.23
2022-08-19T10:11:27.995Z,10.70
2022-08-19T10:13:53.156Z,11.05
2022-08-19T10:16:25.973Z,8.00
2022-08-19T10:18:59.103Z,10.15
2022-08-19T10:21:33.733Z,9.07
2022-08-19T10:24:05.194Z,8.77
2022-08-19T10:26:37.913Z,11.77
2022-08-19T10:29:06.575Z,14.20
2022-08-19T10:32:00.510Z,10.32
2022-08-19T10:34:27.919Z,13.32
2022-08-19T10:37:00.966Z,7.78
2022-08-19T10:39:32.825Z,8.25
2022-08-19T10:42:14.343Z,6.55
2022-08-19T10:44:42.411Z,5.28
2022-08-19T10:47:17.621Z,5.47
2022-08-19T10:50:11.869Z,8.90
2022-08-19T10:52:49.266Z,8.88
2022-08-19T10:55:42.654Z,6.60
2022-08-19T10:58:23.037Z,8.77
2022-08-19T11:00:57.459Z,5.40
2022-08-19T11:03:26.248Z,6.07
2022-08-19T11:06:06.786Z,5.40
2022-08-19T11:08:38.666Z,6.80
2022-08-19T11:11:07.768Z,6.43
2022-08-19T11:13:40.349Z,6.30
2022-08-19T11:16:22.479Z,9.07
2022-08-19T11:18:54.685Z,9.35
2022-08-19T11:21:32.733Z,9.57
2022-08-19T11:24:06.876Z,8.20
2022-08-19T11:26:36.491Z,9.82
2022-08-19T11:29:07.044Z,8.10
2022-08-19T11:31:37.153Z,8.73
2022-08-19T11:34:07.337Z,8.43
2022-08-19T11:36:37.848Z,6.93
2022-08-19T11:39:07.835Z,7.88
2022-08-19T11:41:35.464Z,7.55
2022-08-19T11:44:04.249Z,9.98
2022-08-19T11:46:32.461Z,8.65
2022-08-19T11:49:01.635Z,7.57
2022-08-19T11:51:29.763Z,6.60
2022-08-19T11:53:59.752Z,7.57
2022-08-19T11:56:28.090Z,9.43
2022-08-19T11:58:57.664Z,9.15
2022-08-19T12:01:26.925Z,7.78
2022-08-19T12:03:56.880Z,8.60
2022-08-19T12:06:32.619Z,10.25
2022-08-19T12:09:05.691Z,8.68
2022-08-19T12:11:34.868Z,8.73
2022-08-19T12:14:02.531Z,7.65
2022-08-19T12:16:32.539Z,8.20
2022-08-19T12:19:05.076Z,7.75
2022-08-19T12:21:35.213Z,7.35
2022-08-19T12:24:05.449Z,7.90
2022-08-19T12:26:34.301Z,8.15
2022-08-19T12:29:04.209Z,11.73
2022-08-19T12:31:32.061Z,7.75
2022-08-19T12:33:59.596Z,6.55
2022-08-19T12:36:26.634Z,6.43
2022-08-19T12:38:54.474Z,6.32
2022-08-19T12:41:23.296Z,5.20
2022-08-19T12:43:50.986Z,4.72
2022-08-19T12:46:20.613Z,6.80
2022-08-19T12:48:51.191Z,5.55
2022-08-19T12:51:22.662Z,4.35
2022-08-19T12:53:50.774Z,6.07
2022-08-19T12:56:23.064Z,4.07
2022-08-19T12:58:52.889Z,5.13
2022-08-19T13:01:22.540Z,6.82
2022-08-19T13:03:53.358Z,8.13
2022-08-19T13:06:20.611Z,6.82
2022-08-19T13:08:48.660Z,5.88
2022-08-19T13:11:20.563Z,7.28
2022-08-19T13:13:51.352Z,6.25
2022-08-19T13:16:21.022Z,5.72
2022-08-19T13:18:48.657Z,4.90
2022-08-19T13:21:16.745Z,7.18
2022-08-19T13:23:43.843Z,11.60
2022-08-19T13:26:12.808Z,8.27
2022-08-19T13:29:00.631Z,7.00
2022-08-19T13:31:49.264Z,7.53
2022-08-19T13:34:20.032Z,8.68
2022-08-19T13:36:47.500Z,9.23
2022-08-19T13:39:14.624Z,8.68
2022-08-19T13:41:48.936Z,8.15
2022-08-19T13:44:19.101Z,9.13
2022-08-19T13:46:49.460Z,9.88
2022-08-19T13:49:21.528Z,6.50
2022-08-19T13:51:48.762Z,7.35
2022-08-19T13:54:15.818Z,8.95
2022-08-19T13:56:46.473Z,10.18
2022-08-19T13:59:13.565Z,8.25
2022-08-19T14:01:42.131Z,9.38
2022-08-19T14:04:10.097Z,9.57
2022-08-19T14:06:37.391Z,12.18
2022-08-19T14:09:06.027Z,12.00
2022-08-19T14:11:33.169Z,11.63
2022-08-19T14:14:00.175Z,10.10
2022-08-19T14:16:28.271Z,11.85
2022-08-19T14:18:55.827Z,12.80
2022-08-19T14:21:25.505Z,16.25
2022-08-19T14:23:53.661Z,16.92
2022-08-19T14:26:22.604Z,17.65
2022-08-19T14:28:50.317Z,17.77
2022-08-19T14:31:20.167Z,21.08
2022-08-19T14:33:48.881Z,15.93
2022-08-19T14:36:16.299Z,16.90
2022-08-19T14:38:44.285Z,13.60
2022-08-19T14:41:22.303Z,14.73
2022-08-19T14:43:51.797Z,16.63
2022-08-19T14:46:23.784Z,16.17
2022-08-19T14:48:53.112Z,13.80
2022-08-19T14:51:22.500Z,18.85
2022-08-19T14:53:50.456Z,17.67
2022-08-19T14:56:23.746Z,19.08
2022-08-19T14:58:53.947Z,18.52
2022-08-19T15:01:23.405Z,16.88
2022-08-19T15:03:53.852Z,26.67
2022-08-19T15:06:23.159Z,16.73
2022-08-19T15:08:52.519Z,17.95
2022-08-19T15:11:23.555Z,16.88
2022-08-19T15:13:51.882Z,18.15
2022-08-19T15:16:20.425Z,20.55
2022-08-19T15:18:55.605Z,20.58
2022-08-19T15:21:27.286Z,21.17
2022-08-19T15:23:57.531Z,17.65
2022-08-19T15:26:27.241Z,19.45
2022-08-19T15:28:54.948Z,19.35
2022-08-19T15:31:25.506Z,19.20
2022-08-19T15:33:58.429Z,18.20
2022-08-19T15:36:27.055Z,18.98
2022-08-19T15:38:56.388Z,17.80
2022-08-19T15:41:27.951Z,14.13
2022-08-19T15:44:00.514Z,17.45
2022-08-19T15:46:32.105Z,15.18
2022-08-19T15:49:00.655Z,14.07
2022-08-19T15:51:35.367Z,14.82
2022-08-19T15:54:21.625Z,13.55
2022-08-19T15:57:09.221Z,15.20
2022-08-19T15:59:56.763Z,12.38
2022-08-19T16:02:47.285Z,13.43
2022-08-19T16:05:37.755Z,10.02
2022-08-19T16:08:06.348Z,10.48
2022-08-19T16:10:33.549Z,9.88
2022-08-19T16:13:00.733Z,12.63
2022-08-19T16:15:30.575Z,13.13
2022-08-19T16:17:58.626Z,14.27
2022-08-19T16:20:27.665Z,14.25
2022-08-19T16:22:58.587Z,12.02
2022-08-19T16:25:29.142Z,15.05
2022-08-19T16:28:07.880Z,13.90
2022-08-19T16:30:38.470Z,10.68
2022-08-19T16:33:06.453Z,15.52
2022-08-19T16:35:33.642Z,11.20
2022-08-19T16:38:01.980Z,12.57
2022-08-19T16:40:29.055Z,15.55
2022-08-19T16:42:56.445Z,13.15
2022-08-19T16:45:23.577Z,17.52
2022-08-19T16:47:50.758Z,14.45
2022-08-19T16:50:25.436Z,16.20
2022-08-19T16:53:09.418Z,17.17
2022-08-19T16:55:37.633Z,12.55
2022-08-19T16:58:04.966Z,19.90
2022-08-19T17:00:32.404Z,15.70
2022-08-19T17:03:14.658Z,13.70
2022-08-19T17:05:47.973Z,14.45
2022-08-19T17:08:16.927Z,16.73
2022-08-19T17:10:56.842Z,16.05
2022-08-19T17:13:32.470Z,11.98
2022-08-19T17:15:59.620Z,15.32
2022-08-19T17:18:26.900Z,14.80
2022-08-19T17:21:01.047Z,14.82
2022-08-19T17:23:42.112Z,22.80
2022-08-19T17:26:14.112Z,16.52
2022-08-19T17:28:51.028Z,16.83
2022-08-19T17:31:21.482Z,14.73
2022-08-19T17:33:49.110Z,13.52
2022-08-19T17:36:19.363Z,21.08
2022-08-19T17:38:46.920Z,19.77
2022-08-19T17:41:14.042Z,13.52
2022-08-19T17:43:43.948Z,15.05
2022-08-19T17:46:18.067Z,17.85
2022-08-19T17:48:52.741Z,17.48
2022-08-19T17:51:40.655Z,18.75
2022-08-19T17:54:18.555Z,18.10
2022-08-19T17:56:46.653Z,16.20
2022-08-19T17:59:15.444Z,18.05
2022-08-19T18:01:53.973Z,20.98
2022-08-19T18:04:25.064Z,21.27
2022-08-19T18:06:55.130Z,19.67
2022-08-19T18:09:41.931Z,15.95
2022-08-19T18:12:14.121Z,18.60
2022-08-19T18:14:42.026Z,18.33
2022-08-19T18:17:14.297Z,20.35
2022-08-19T18:19:43.858Z,20.83
2022-08-19T18:22:33.572Z,21.83
2022-08-19T18:25:02.837Z,21.05
2022-08-19T18:27:30.513Z,16.52
2022-08-19T18:29:59.574Z,18.65
2022-08-19T18:32:39.002Z,15.57
2022-08-19T18:35:12.547Z,17.58
2022-08-19T18:37:41.595Z,15.68
2022-08-19T18:40:31.659Z,13.95
2022-08-19T18:43:17.696Z,17.40
2022-08-19T18:46:04.077Z,16.80
2022-08-19T18:48:54.218Z,13.60
2022-08-19T18:51:27.730Z,16.30
2022-08-19T18:53:58.653Z,14.88
2022-08-19T18:56:29.213Z,17.95
2022-08-19T18:58:56.731Z,16.38
2022-08-19T19:01:34.911Z,13.57
2022-08-19T19:04:06.048Z,11.05
2022-08-19T19:06:40.360Z,10.32
2022-08-19T19:09:16.345Z,13.52
2022-08-19T19:11:48.307Z,12.25
2022-08-19T19:14:47.797Z,9.35
2022-08-19T19:17:14.674Z,9.88
2022-08-19T19:19:43.950Z,8.88
2022-08-19T19:22:18.592Z,13.38
2022-08-19T19:24:46.061Z,7.97
2022-08-19T19:27:16.245Z,13.25
2022-08-19T19:29:46.466Z,9.13
2022-08-19T19:32:35.807Z,8.45
2022-08-19T19:35:07.940Z,11.52
2022-08-19T19:37:35.035Z,10.52
2022-08-19T19:40:02.556Z,8.82
2022-08-19T19:42:29.603Z,7.57
2022-08-19T19:44:56.765Z,6.35
2022-08-19T19:47:24.355Z,6.80
2022-08-19T19:50:13.266Z,6.25
2022-08-19T19:52:41.056Z,5.47
2022-08-19T19:55:17.928Z,7.30
2022-08-19T19:57:49.152Z,6.93
2022-08-19T20:00:18.853Z,7.90
2022-08-19T20:02:50.093Z,7.78
2022-08-19T20:05:21.293Z,6.63
2022-08-19T20:08:09.692Z,7.47
2022-08-19T20:10:37.940Z,6.53
2022-08-19T20:13:06.877Z,7.97
2022-08-19T20:15:37.911Z,7.50
2022-08-19T20:18:07.566Z,7.80
2022-08-19T20:20:35.391Z,7.28
2022-08-19T20:23:02.477Z,9.05
2022-08-19T20:25:30.396Z,9.13
2022-08-19T20:27:57.620Z,8.63
2022-08-19T20:30:25.437Z,7.70
2022-08-19T20:32:56.412Z,7.05
2022-08-19T20:35:24.090Z,8.23
2022-08-19T20:37:53.831Z,9.73
2022-08-19T20:40:24.520Z,7.95
2022-08-19T20:42:51.579Z,7.22
2022-08-19T20:45:32.133Z,7.65
2022-08-19T20:48:05.351Z,7.25
2022-08-19T20:50:35.189Z,6.70
2022-08-19T20:53:13.888Z,6.35
2022-08-19T20:55:45.399Z,7.82
2022-08-19T20:58:13.441Z,8.07
2022-08-19T21:00:45.519Z,8.90
2022-08-19T21:03:18.805Z,6.88
2022-08-19T21:05:46.463Z,8.20
2022-08-19T21:08:14.592Z,8.93
2022-08-19T21:10:42.506Z,8.60
2022-08-19T21:13:09.939Z,10.73
2022-08-19T21:15:40.558Z,9.18
2022-08-19T21:18:08.280Z,10.88
2022-08-19T21:20:35.438Z,8.80
2022-08-19T21:23:10.580Z,9.63
2022-08-19T21:25:38.222Z,15.15
2022-08-19T21:28:06.073Z,9.18
2022-08-19T21:30:34.753Z,8.48
2022-08-19T21:33:04.483Z,10.80
2022-08-19T21:35:32.090Z,11.50
2022-08-19T21:37:59.191Z,12.10
2022-08-19T21:40:26.985Z,8.90
2022-08-19T21:42:54.194Z,15.25
2022-08-19T21:45:22.888Z,12.23
2022-08-19T21:47:50.735Z,10.68
2022-08-19T21:50:17.932Z,11.88
2022-08-19T21:52:46.495Z,12.38
2022-08-19T21:55:14.740Z,12.02
2022-08-19T21:57:42.608Z,11.13
2022-08-19T22:00:18.777Z,12.95
2022-08-19T22:02:45.965Z,14.38
2022-08-19T22:05:13.787Z,10.68
2022-08-19T22:07:42.615Z,11.52
2022-08-19T22:10:10.908Z,12.73
2022-08-19T22:12:51.520Z,16.05
2022-08-19T22:15:23.856Z,14.95
2022-08-19T22:17:51.025Z,11.77
2022-08-19T22:20:23.533Z,13.60
2022-08-19T22:22:58.501Z,18.58
2022-08-19T22:25:40.510Z,12.33
2022-08-19T22:28:10.976Z,13.90
2022-08-19T22:30:42.317Z,13.50
2022-08-19T22:33:16.962Z,16.35
2022-08-19T22:35:46.918Z,15.57
2022-08-19T22:38:15.798Z,13.82
2022-08-19T22:40:48.400Z,11.93
2022-08-19T22:43:24.476Z,14.50
2022-08-19T22:45:54.547Z,16.23
2022-08-19T22:48:26.297Z,12.48
2022-08-19T22:51:13.108Z,13.65
2022-08-19T22:53:42.993Z,11.60
2022-08-19T22:56:15.065Z,16.80
2022-08-19T22:58:43.477Z,14.13
2022-08-19T23:01:14.703Z,14.05
2022-08-19T23:03:56.419Z,18.67
2022-08-19T23:06:23.452Z,15.43
2022-08-19T23:08:58.740Z,14.53
2022-08-19T23:11:25.878Z,15.80
2022-08-19T23:13:53.099Z,16.25
2022-08-19T23:16:20.651Z,13.75
2022-08-19T23:18:48.163Z,15.52
2022-08-19T23:21:16.535Z,14.38
2022-08-19T23:23:44.101Z,14.57
2022-08-19T23:26:12.013Z,14.30
2022-08-19T23:28:58.049Z,15.57
2022-08-19T23:31:26.906Z,16.00
2022-08-19T23:33:53.922Z,15.18
2022-08-19T23:36:22.498Z,18.23
2022-08-19T23:38:52.212Z,19.17
2022-08-19T23:41:21.960Z,13.30
2022-08-19T23:43:51.423Z,14.43
2022-08-19T23:46:27.569Z,14.18
2022-08-19T23:48:56.669Z,14.73
2022-08-19T23:51:24.568Z,18.67
2022-08-19T23:53:51.635Z,15.45
2022-08-19T23:56:18.700Z,13.63
2022-08-19T23:58:47.095Z,15.32
